01:51
Airports
History
Links
Donate
Help keep this website running!
PayPal
Bitcoin
This page is community maintained. The information is intended for PC simulator navigation or reference.
Always use approved charts for navigation.
EGBB
Birmingham
Birmingham (EGBB)
Marston Green, England, United Kingdom
(C)
Lat/Lng:52° 27' 21.48" N / 1° 45' 1.36" W
52.455966 / -1.750378
Elevation:327'ft / 100mMSL
ID / ICAO:EGBB
Runways:1
Longest:15-33
Asphalt 2,575m / 8,448ft
Controlled:Yes
METAR01:20 GMT 2017-11-24
Altimeter: 29.68
Visibility: 6.2 statute miles
Wind: 3 knots (from 260°)
Temp: 6°c / 43°f
Humidity: 81.0%

METAR: EGBB 240120Z AUTO 26003KT 9999 NCD 06/03 Q1005

(Powered by phpweather)
Airport Radio Frequencies
ATIS: 136.02
Clearance Delivery: 121.92
Ground: 121.8
Tower: 118.3
Approach: 131
Nearby VORs <50NM
Nearby NDBs
Runway 15 / 33
Dimensions:2574.9 x 46m 8448' x 151'ft
Surface:Asphalt
Edge Lights:High intensity
Runway 15 [A]Runway 33 [B]
Heading:145°TH 325°TH
Lat:
Lng:
52° 27' 56.1"N
1° 45' 39.85"W
52° 26' 46.86"N
1° 44' 22.87"W
ALS:Calvert ILS Cat IICalvert ILS Cat II
TDZ:Yes, lighted
User Notes and Comments
52° 27' 21.48" N / 1° 45' 1.36" W
Distance To
Airport ID:
Nearby Airports
(C) Coventry 12.9 NM
EGBE ( WX ) ESE 117°
4 Roddige 17.5 NM
EG85 N
(C) Wellesbourne Mountford 19.1 NM
EGBW SSE 162°
(C) Long Marston 21.9 NM
EGBL S 180°
(C) Wolverhampton 21.9 NM
EGBO W 281°
4 Bidford 22.4 NM
XBID S 190°
(U) Tatenhill 24.7 NM
EGBM N 358°
VFR Chart
Flight Planning at SkyVector.com